Time;durP1;ratioP1;P1;durP2;ratioP2;P2;SDS_P1;SDS_P2;PMS_P1;PMS_P2;Temp;Humidity;BMP_temperature;BMP_pressure;BME280_temperature;BME280_humidity;BME280_pressure;Samples;Min_cycle;Max_cycle;Signal;HPM_P1;HPM_P2
2023/04/20 00:01:13;;;;;;;13.33;7.40;;;;;3.40;96218.00;;;;8294758;28;20275;-72
2023/04/20 00:05:20;;;;;;;10.93;6.20;;;;;3.50;96221.00;;;;8291201;28;20217;-72
2023/04/20 00:09:25;;;;;;;10.53;6.90;;;;;3.60;96219.00;;;;8274634;28;20201;-72
2023/04/20 00:13:31;;;;;;;11.57;6.53;;;;;3.70;96214.00;;;;8290695;28;20693;-72
2023/04/20 00:17:35;;;;;;;14.33;6.47;;;;;3.70;96203.00;;;;8287284;28;20201;-71
2023/04/20 00:21:39;;;;;;;12.23;6.23;;;;;3.70;96200.00;;;;8283046;28;20236;-72
2023/04/20 00:25:44;;;;;;;8.93;6.10;;;;;3.50;96191.00;;;;8290353;28;20210;-72
2023/04/20 00:29:50;;;;;;;8.03;5.80;;;;;3.40;96186.00;;;;8288708;28;20614;-72
2023/04/20 00:33:54;;;;;;;9.60;6.10;;;;;3.20;96189.00;;;;8292246;28;20205;-72
2023/04/20 00:38:01;;;;;;;14.07;6.07;;;;;3.10;96183.00;;;;8291377;28;20218;-72
2023/04/20 00:42:05;;;;;;;11.37;6.90;;;;;3.10;96173.00;;;;8289902;28;20789;-72
2023/04/20 00:46:11;;;;;;;10.93;6.37;;;;;3.00;96175.00;;;;8287671;28;20203;-73
2023/04/20 00:50:15;;;;;;;9.53;6.20;;;;;2.90;96174.00;;;;8286828;28;20928;-73
2023/04/20 00:54:25;;;;;;;10.57;6.37;;;;;2.80;96161.00;;;;8284604;28;20277;-74
2023/04/20 00:58:31;;;;;;;10.77;6.67;;;;;2.70;96163.00;;;;8280681;28;20599;-73
2023/04/20 01:02:36;;;;;;;12.03;6.07;;;;;2.50;96158.00;;;;8298557;28;20330;-73
2023/04/20 01:06:41;;;;;;;9.73;6.17;;;;;2.40;96153.00;;;;8265505;28;20218;-74
2023/04/20 01:10:46;;;;;;;9.80;6.77;;;;;2.30;96143.00;;;;8287050;28;20244;-73
2023/04/20 01:14:49;;;;;;;16.33;7.90;;;;;2.50;96136.00;;;;8283861;28;20629;-72
2023/04/20 01:18:52;;;;;;;16.83;7.87;;;;;2.80;96131.00;;;;8293777;28;20204;-72
2023/04/20 01:22:57;;;;;;;12.10;6.50;;;;;3.00;96123.00;;;;8289469;28;20279;-72
2023/04/20 01:27:01;;;;;;;11.00;7.03;;;;;3.10;96131.00;;;;8293057;28;20197;-72
2023/04/20 01:31:06;;;;;;;10.93;7.13;;;;;3.20;96135.00;;;;8285981;28;20197;-73
2023/04/20 01:35:10;;;;;;;13.13;7.30;;;;;3.30;96135.00;;;;8290475;28;20205;-73
2023/04/20 01:39:20;;;;;;;17.47;7.53;;;;;3.30;96128.00;;;;8286991;28;20259;-72
2023/04/20 01:43:26;;;;;;;13.97;7.33;;;;;3.30;96126.00;;;;8286704;28;20229;-73
2023/04/20 01:47:33;;;;;;;18.43;8.43;;;;;3.30;96129.00;;;;8289288;28;20197;-72
2023/04/20 01:51:37;;;;;;;14.57;7.10;;;;;3.30;96119.00;;;;8285400;28;20209;-73
2023/04/20 01:55:42;;;;;;;16.70;8.70;;;;;3.40;96119.00;;;;8272823;28;20257;-73
2023/04/20 01:59:47;;;;;;;13.97;8.47;;;;;3.40;96118.00;;;;8292517;28;20205;-72
2023/04/20 02:03:52;;;;;;;16.17;8.50;;;;;3.40;96119.00;;;;8291735;28;20319;-73
2023/04/20 02:07:57;;;;;;;15.27;7.50;;;;;3.40;96111.00;;;;8289778;28;20208;-72
2023/04/20 02:12:02;;;;;;;12.10;7.77;;;;;3.40;96112.00;;;;8294101;28;20269;-73
2023/04/20 02:16:07;;;;;;;12.43;7.77;;;;;3.40;96111.00;;;;8302334;28;20758;-73
2023/04/20 02:20:11;;;;;;;19.40;10.00;;;;;3.40;96113.00;;;;8297863;28;21974;-73
2023/04/20 02:24:17;;;;;;;14.33;7.57;;;;;3.40;96103.00;;;;8277782;28;20208;-73
2023/04/20 02:28:22;;;;;;;15.23;9.07;;;;;3.40;96111.00;;;;8310531;28;20234;-73
2023/04/20 02:32:26;;;;;;;13.30;8.60;;;;;3.40;96104.00;;;;8301244;28;20210;-73
2023/04/20 02:36:29;;;;;;;15.90;8.90;;;;;3.40;96104.00;;;;8298293;28;20208;-73
2023/04/20 02:40:33;;;;;;;15.63;9.07;;;;;3.40;96102.00;;;;8296281;28;20294;-74
2023/04/20 02:44:38;;;;;;;15.57;8.77;;;;;3.50;96098.00;;;;8293846;28;20235;-73
2023/04/20 02:48:41;;;;;;;16.57;9.87;;;;;3.60;96101.00;;;;8291308;28;20202;-74
2023/04/20 02:52:46;;;;;;;15.53;9.43;;;;;3.70;96104.00;;;;8289691;28;20231;-73
2023/04/20 02:56:49;;;;;;;17.57;9.97;;;;;3.80;96099.00;;;;8294570;28;20208;-73
2023/04/20 03:01:00;;;;;;;22.03;9.50;;;;;3.90;96097.00;;;;8290704;28;20772;-73
2023/04/20 03:05:04;;;;;;;16.50;9.80;;;;;3.90;96107.00;;;;8337773;23;20621;-73
2023/04/20 03:09:10;;;;;;;14.80;8.87;;;;;3.90;96099.00;;;;8329508;28;20722;-73
2023/04/20 03:13:15;;;;;;;16.87;8.70;;;;;3.90;96096.00;;;;8323753;28;20630;-73
2023/04/20 03:17:20;;;;;;;18.17;9.73;;;;;4.00;96087.00;;;;8325873;28;20204;-73
2023/04/20 03:21:26;;;;;;;15.07;8.73;;;;;4.00;96097.00;;;;8321427;28;20281;-73
2023/04/20 03:25:29;;;;;;;19.73;10.43;;;;;4.00;96088.00;;;;8320571;28;20350;-74
2023/04/20 03:29:37;;;;;;;17.47;9.43;;;;;4.00;96084.00;;;;8322048;28;20238;-74
2023/04/20 03:33:43;;;;;;;14.70;9.20;;;;;4.00;96092.00;;;;8320449;28;20216;-73
2023/04/20 03:37:46;;;;;;;22.57;8.43;;;;;4.00;96093.00;;;;8314085;28;20208;-73
2023/04/20 03:41:53;;;;;;;16.17;8.83;;;;;3.90;96079.00;;;;8317846;28;20222;-73
2023/04/20 03:45:56;;;;;;;15.73;9.37;;;;;3.90;96093.00;;;;8314432;28;20281;-72
2023/04/20 03:50:06;;;;;;;16.60;8.73;;;;;4.00;96087.00;;;;8323467;28;20205;-73
2023/04/20 03:54:09;;;;;;;15.10;8.90;;;;;4.00;96089.00;;;;8323011;28;20698;-72
2023/04/20 03:58:14;;;;;;;14.27;8.80;;;;;4.00;96076.00;;;;8314784;28;20216;-72
2023/04/20 04:02:21;;;;;;;13.33;8.93;;;;;3.90;96081.00;;;;8314022;28;20233;-72
2023/04/20 04:06:26;;;;;;;19.20;11.77;;;;;3.90;96075.00;;;;8310774;28;20200;-71
2023/04/20 04:10:29;;;;;;;17.17;10.43;;;;;3.90;96079.00;;;;8314689;28;20846;-71
2023/04/20 04:14:33;;;;;;;16.10;9.23;;;;;3.90;96076.00;;;;8313644;28;20496;-71
2023/04/20 04:18:36;;;;;;;13.97;7.57;;;;;3.80;96081.00;;;;8293341;28;20206;-72
2023/04/20 04:22:43;;;;;;;20.67;11.93;;;;;3.90;96088.00;;;;8311634;28;20232;-72
2023/04/20 04:26:55;;;;;;;22.40;11.93;;;;;3.90;96089.00;;;;8300838;28;20263;-71
2023/04/20 04:31:00;;;;;;;19.93;10.90;;;;;3.80;96084.00;;;;8283293;28;20489;-71
2023/04/20 04:35:04;;;;;;;17.40;10.40;;;;;3.80;96082.00;;;;8304474;28;20211;-72
2023/04/20 04:39:08;;;;;;;22.03;10.93;;;;;3.90;96083.00;;;;8309260;28;20200;-71
2023/04/20 04:43:11;;;;;;;18.07;10.27;;;;;3.80;96083.00;;;;8310768;28;20271;-72
2023/04/20 04:47:16;;;;;;;18.27;10.30;;;;;3.80;96079.00;;;;8311060;28;20617;-72
2023/04/20 04:51:21;;;;;;;19.53;12.10;;;;;3.90;96087.00;;;;8309614;28;20688;-72
2023/04/20 04:55:29;;;;;;;20.90;11.17;;;;;3.90;96092.00;;;;8310336;28;20201;-72
2023/04/20 04:59:32;;;;;;;19.73;9.90;;;;;4.00;96089.00;;;;8301033;28;20193;-72
2023/04/20 05:03:40;;;;;;;21.27;12.37;;;;;4.00;96088.00;;;;8307642;28;20256;-71
2023/04/20 05:07:48;;;;;;;17.60;10.47;;;;;4.10;96095.00;;;;8301444;28;20208;-72
2023/04/20 05:11:53;;;;;;;16.03;9.87;;;;;4.10;96095.00;;;;8300731;28;20304;-72
2023/04/20 05:15:56;;;;;;;21.47;10.37;;;;;4.10;96088.00;;;;8297513;28;20208;-72
2023/04/20 05:20:01;;;;;;;18.60;11.40;;;;;4.00;96089.00;;;;8299460;28;20215;-72
2023/04/20 05:24:07;;;;;;;21.33;11.80;;;;;4.10;96094.00;;;;8291658;28;20228;-72
2023/04/20 05:28:13;;;;;;;18.50;11.80;;;;;4.20;96094.00;;;;8295382;28;20256;-72
2023/04/20 05:32:16;;;;;;;20.47;11.63;;;;;4.30;96084.00;;;;8294716;28;20258;-72
2023/04/20 05:36:20;;;;;;;21.53;11.50;;;;;4.40;96094.00;;;;8293439;28;20216;-72
2023/04/20 05:40:23;;;;;;;24.57;11.50;;;;;4.50;96093.00;;;;8303611;28;20836;-73
2023/04/20 05:44:32;;;;;;;20.97;11.07;;;;;4.50;96106.00;;;;8309685;28;20223;-72
2023/04/20 05:48:35;;;;;;;16.73;10.73;;;;;4.60;96101.00;;;;8306485;28;20265;-73
2023/04/20 05:52:40;;;;;;;18.60;10.80;;;;;4.70;96098.00;;;;8304556;28;20254;-73
2023/04/20 05:56:45;;;;;;;18.97;10.60;;;;;4.70;96107.00;;;;8307230;28;20212;-72
2023/04/20 06:01:01;;;;;;;20.97;12.10;;;;;4.80;96109.00;;;;8311395;28;20243;-72
2023/04/20 06:05:04;;;;;;;21.10;12.23;;;;;5.00;96104.00;;;;8311252;28;20229;-72
2023/04/20 06:09:08;;;;;;;17.77;11.03;;;;;5.10;96100.00;;;;8305266;28;20209;-71
2023/04/20 06:13:11;;;;;;;23.63;12.13;;;;;5.20;96099.00;;;;8300958;28;20205;-72
2023/04/20 06:17:17;;;;;;;19.03;10.33;;;;;5.20;96097.00;;;;8307926;28;20206;-72
2023/04/20 06:21:25;;;;;;;23.73;10.63;;;;;5.30;96098.00;;;;8302341;28;20613;-70
2023/04/20 06:25:43;;;;;;;19.40;10.50;;;;;5.50;96103.00;;;;8306582;28;20233;-72
2023/04/20 06:29:47;;;;;;;18.60;11.10;;;;;5.70;96095.00;;;;8301431;28;20264;-71
2023/04/20 06:33:52;;;;;;;20.67;10.80;;;;;6.00;96096.00;;;;8312752;28;20209;-71
2023/04/20 06:37:56;;;;;;;22.57;9.93;;;;;6.20;96095.00;;;;8292116;28;20732;-72
2023/04/20 06:42:02;;;;;;;16.43;10.70;;;;;6.40;96099.00;;;;8303493;28;20209;-71
2023/04/20 06:46:06;;;;;;;15.30;10.30;;;;;6.50;96100.00;;;;8302394;28;20306;-72
2023/04/20 06:50:11;;;;;;;14.57;9.63;;;;;6.70;96101.00;;;;8298675;28;20792;-72
2023/04/20 06:54:14;;;;;;;16.90;9.83;;;;;6.80;96101.00;;;;8309540;28;20923;-71
2023/04/20 06:58:21;;;;;;;18.77;9.60;;;;;6.80;96110.00;;;;8284618;28;20750;-72
2023/04/20 07:02:27;;;;;;;24.70;12.37;;;;;6.90;96103.00;;;;8307618;28;20327;-72
2023/04/20 07:06:32;;;;;;;17.30;10.67;;;;;7.00;96105.00;;;;8317429;28;20729;-73
2023/04/20 07:10:36;;;;;;;16.60;10.50;;;;;7.00;96104.00;;;;8286461;28;20276;-72
2023/04/20 07:14:39;;;;;;;18.60;10.90;;;;;7.10;96104.00;;;;8315863;28;20216;-72
2023/04/20 07:18:47;;;;;;;20.73;10.00;;;;;7.20;96095.00;;;;8310763;28;20209;-72
2023/04/20 07:22:53;;;;;;;16.57;10.23;;;;;7.40;96096.00;;;;8308338;28;20234;-72
2023/04/20 07:26:57;;;;;;;17.57;10.07;;;;;7.50;96093.00;;;;8310250;28;20779;-72
2023/04/20 07:31:00;;;;;;;17.93;11.20;;;;;7.90;96099.00;;;;8307899;28;20201;-72
2023/04/20 07:35:07;;;;;;;20.20;10.27;;;;;8.00;96098.00;;;;8309827;28;20224;-72
2023/04/20 07:39:15;;;;;;;16.13;10.10;;;;;8.00;96097.00;;;;8305210;28;20209;-72
2023/04/20 07:43:19;;;;;;;14.20;9.47;;;;;8.10;96096.00;;;;8305768;28;20280;-72
2023/04/20 07:47:22;;;;;;;20.43;10.13;;;;;8.40;96101.00;;;;8302879;28;20225;-73
2023/04/20 07:51:25;;;;;;;18.77;10.83;;;;;8.50;96092.00;;;;8306145;28;20205;-72
2023/04/20 07:55:29;;;;;;;16.23;10.37;;;;;8.60;96095.00;;;;8317866;28;20251;-72
2023/04/20 07:59:33;;;;;;;19.63;10.60;;;;;8.60;96095.00;;;;8310638;28;20197;-72
2023/04/20 08:03:36;;;;;;;21.13;11.17;;;;;8.70;96092.00;;;;8299506;28;20238;-73
2023/04/20 08:07:42;;;;;;;17.30;10.00;;;;;9.00;96084.00;;;;8309314;28;20210;-72
2023/04/20 08:11:47;;;;;;;16.17;10.13;;;;;9.50;96087.00;;;;8306468;28;20543;-72
2023/04/20 08:16:00;;;;;;;13.67;9.83;;;;;10.10;96093.00;;;;8298618;28;20224;-72
2023/04/20 08:20:04;;;;;;;20.77;10.27;;;;;10.20;96093.00;;;;8308407;28;20224;-72
2023/04/20 08:24:08;;;;;;;13.10;9.13;;;;;10.00;96096.00;;;;8303081;28;20232;-72
2023/04/20 08:28:17;;;;;;;17.53;10.60;;;;;9.90;96089.00;;;;8305325;28;20201;-72
2023/04/20 08:32:35;;;;;;;18.03;9.53;;;;;9.60;96094.00;;;;8299588;28;20229;-72
2023/04/20 08:36:38;;;;;;;15.23;9.73;;;;;9.30;96080.00;;;;8295173;28;20213;-72
2023/04/20 08:40:44;;;;;;;17.23;8.90;;;;;9.00;96078.00;;;;8304499;28;20214;-72
2023/04/20 08:44:48;;;;;;;17.60;10.00;;;;;8.90;96082.00;;;;8305693;28;21517;-72
2023/04/20 08:48:54;;;;;;;21.00;10.23;;;;;8.60;96077.00;;;;8311779;28;20209;-72
2023/04/20 08:52:57;;;;;;;16.60;11.00;;;;;8.50;96078.00;;;;8302874;28;20295;-72
2023/04/20 08:57:01;;;;;;;17.33;11.37;;;;;8.40;96087.00;;;;8290072;28;20202;-72
2023/04/20 09:01:09;;;;;;;17.20;9.73;;;;;8.30;96078.00;;;;8309751;28;20214;-72
2023/04/20 09:05:25;;;;;;;18.90;9.80;;;;;8.30;96075.00;;;;8309554;28;20226;-73
2023/04/20 09:09:30;;;;;;;15.20;9.87;;;;;8.40;96084.00;;;;8307067;28;20225;-72
2023/04/20 09:13:34;;;;;;;14.57;7.70;;;;;8.40;96091.00;;;;8301239;28;20213;-72
2023/04/20 09:17:41;;;;;;;17.83;10.53;;;;;8.40;96095.00;;;;8306999;28;20206;-72
2023/04/20 09:21:48;;;;;;;15.83;10.27;;;;;8.40;96074.00;;;;8305808;28;21031;-72
2023/04/20 09:25:52;;;;;;;15.53;9.90;;;;;8.60;96079.00;;;;8304085;28;20213;-72
2023/04/20 09:30:00;;;;;;;19.63;9.13;;;;;8.80;96078.00;;;;8302486;28;20206;-72
2023/04/20 09:34:07;;;;;;;18.10;9.87;;;;;8.90;96073.00;;;;8301340;28;20213;-72
2023/04/20 09:38:15;;;;;;;16.13;8.93;;;;;8.80;96071.00;;;;8304979;28;20221;-73
2023/04/20 09:42:19;;;;;;;16.37;9.47;;;;;8.70;96071.00;;;;8305095;28;20212;-72
2023/04/20 09:46:28;;;;;;;17.67;10.13;;;;;8.80;96073.00;;;;8307133;28;20799;-73
2023/04/20 09:50:38;;;;;;;20.50;9.97;;;;;8.90;96076.00;;;;8309521;28;20718;-73
2023/04/20 09:54:52;;;;;;;16.10;9.40;;;;;9.00;96070.00;;;;8301175;28;20240;-73
2023/04/20 09:58:57;;;;;;;15.30;8.70;;;;;9.10;96073.00;;;;8281976;28;20202;-73
2023/04/20 10:03:00;;;;;;;14.88;8.68;;;;;9.20;96068.00;;;;8302633;28;20229;-73
2023/04/20 10:07:06;;;;;;;15.77;8.93;;;;;9.30;96069.00;;;;8305954;28;20230;-73
2023/04/20 10:11:09;;;;;;;12.90;8.40;;;;;9.50;96063.00;;;;8306246;28;20233;-73
2023/04/20 10:15:13;;;;;;;12.77;7.23;;;;;9.50;96051.00;;;;8305509;28;20205;-72
2023/04/20 10:19:18;;;;;;;14.70;8.98;;;;;9.50;96039.00;;;;8305288;28;20247;-73
2023/04/20 10:23:25;;;;;;;13.75;7.70;;;;;9.80;96037.00;;;;8302744;28;20211;-72
2023/04/20 10:27:31;;;;;;;12.45;7.55;;;;;10.00;96031.00;;;;8304877;28;20244;-73
2023/04/20 10:31:38;;;;;;;13.25;8.35;;;;;10.00;96030.00;;;;8298691;28;20220;-71
2023/04/20 10:35:45;;;;;;;14.13;7.30;;;;;10.10;96026.00;;;;8311287;28;20233;-72
2023/04/20 10:39:58;;;;;;;10.85;7.05;;;;;10.20;96020.00;;;;8287682;28;20280;-72
2023/04/20 10:44:08;;;;;;;11.68;7.72;;;;;10.20;96026.00;;;;8308342;28;20921;-72
2023/04/20 10:48:12;;;;;;;11.03;6.93;;;;;10.40;96006.00;;;;8303029;28;20725;-73
2023/04/20 10:52:17;;;;;;;7.70;5.93;;;;;10.60;96004.00;;;;8299190;28;20203;-71
2023/04/20 10:56:23;;;;;;;8.37;6.00;;;;;10.90;95997.00;;;;8301970;28;20834;-73
2023/04/20 11:00:29;;;;;;;9.27;5.97;;;;;11.20;95982.00;;;;8300594;28;20198;-73
2023/04/20 11:04:34;;;;;;;7.63;5.05;;;;;11.50;95979.00;;;;8314118;28;20231;-73
2023/04/20 11:08:42;;;;;;;7.93;4.78;;;;;11.40;95957.00;;;;8314809;28;20203;-73
2023/04/20 11:12:49;;;;;;;5.45;4.35;;;;;11.10;95940.00;;;;8306305;28;20301;-72
2023/04/20 11:16:54;;;;;;;5.95;5.03;;;;;10.90;95949.00;;;;8298201;28;20258;-73
2023/04/20 11:20:58;;;;;;;5.13;4.63;;;;;10.70;95952.00;;;;8304115;28;20804;-72
2023/04/20 11:25:05;;;;;;;7.25;4.93;;;;;10.60;95953.00;;;;8293475;28;20290;-73
2023/04/20 11:29:12;;;;;;;5.47;4.68;;;;;10.50;95953.00;;;;8288008;28;20560;-73
2023/04/20 11:33:17;;;;;;;7.93;5.30;;;;;10.60;95944.00;;;;8313148;28;20221;-72
2023/04/20 11:37:21;;;;;;;8.55;5.68;;;;;10.80;95946.00;;;;8296390;28;20213;-73
2023/04/20 11:41:24;;;;;;;6.78;5.20;;;;;11.80;95940.00;;;;8310090;28;20224;-72
2023/04/20 11:45:32;;;;;;;7.13;4.93;;;;;13.20;95944.00;;;;8306973;28;20252;-73
2023/04/20 11:49:42;;;;;;;7.53;5.50;;;;;13.70;95937.00;;;;8302962;28;20221;-73
2023/04/20 11:53:50;;;;;;;5.85;5.25;;;;;14.20;95951.00;;;;8302816;28;20216;-73
2023/04/20 11:57:53;;;;;;;8.82;5.07;;;;;14.60;95947.00;;;;8303351;28;20271;-73
2023/04/20 12:02:00;;;;;;;7.55;4.95;;;;;15.00;95943.00;;;;8291706;28;20225;-74
2023/04/20 12:06:03;;;;;;;6.00;5.40;;;;;14.90;95944.00;;;;8287936;28;20664;-73
2023/04/20 12:10:10;;;;;;;5.60;5.00;;;;;14.80;95935.00;;;;8292683;28;20190;-74
2023/04/20 12:14:14;;;;;;;6.50;5.68;;;;;15.20;95940.00;;;;8304540;28;20255;-73
2023/04/20 12:18:22;;;;;;;5.80;5.20;;;;;15.30;95936.00;;;;8292138;28;20247;-74
2023/04/20 12:22:26;;;;;;;6.93;5.40;;;;;15.20;95930.00;;;;8291694;28;20275;-74
2023/04/20 12:26:29;;;;;;;7.10;5.68;;;;;15.10;95916.00;;;;8303161;28;20253;-73
2023/04/20 12:30:40;;;;;;;7.15;5.88;;;;;14.90;95925.00;;;;8304303;28;20657;-74
2023/04/20 12:34:48;;;;;;;6.40;5.32;;;;;14.70;95919.00;;;;8312454;28;20205;-73
2023/04/20 12:38:52;;;;;;;5.53;4.95;;;;;14.70;95918.00;;;;8301509;28;20193;-73
2023/04/20 12:42:55;;;;;;;6.72;5.50;;;;;14.60;95909.00;;;;8305319;28;20986;-73
2023/04/20 12:47:00;;;;;;;8.50;6.38;;;;;14.80;95916.00;;;;8304296;28;20633;-73
2023/04/20 12:51:04;;;;;;;7.22;5.25;;;;;15.10;95904.00;;;;8288596;28;20193;-73
2023/04/20 12:55:11;;;;;;;7.05;5.90;;;;;15.20;95901.00;;;;8310375;28;20198;-74
2023/04/20 12:59:15;;;;;;;7.05;6.05;;;;;15.30;95903.00;;;;8285954;28;20637;-74
2023/04/20 13:03:18;;;;;;;7.85;5.40;;;;;15.70;95902.00;;;;8298847;28;20267;-73
2023/04/20 13:07:26;;;;;;;6.35;5.28;;;;;16.10;95896.00;;;;8310932;28;20236;-72
2023/04/20 13:11:34;;;;;;;9.48;5.28;;;;;16.10;95904.00;;;;8296172;28;20379;-73
2023/04/20 13:15:37;;;;;;;5.35;4.82;;;;;16.20;95900.00;;;;8287031;28;20673;-74
2023/04/20 13:19:41;;;;;;;7.50;5.88;;;;;16.70;95902.00;;;;8286898;28;20631;-74
2023/04/20 13:23:47;;;;;;;6.80;4.82;;;;;16.80;95899.00;;;;8284598;28;20210;-74
2023/04/20 13:27:50;;;;;;;13.32;6.20;;;;;16.00;95891.00;;;;8287523;28;20300;-73
2023/04/20 13:31:56;;;;;;;6.22;5.32;;;;;16.10;95885.00;;;;8283658;28;20221;-74
2023/04/20 13:35:59;;;;;;;7.68;5.47;;;;;16.20;95892.00;;;;8288416;28;20232;-74
2023/04/20 13:40:05;;;;;;;7.88;5.78;;;;;15.80;95902.00;;;;8295781;28;20206;-74
2023/04/20 13:44:14;;;;;;;6.97;5.95;;;;;15.80;95892.00;;;;8293758;28;20713;-73
2023/04/20 13:48:20;;;;;;;8.43;6.00;;;;;15.80;95882.00;;;;8293102;28;20228;-73
2023/04/20 13:52:23;;;;;;;6.53;5.78;;;;;15.40;95886.00;;;;8295814;28;20292;-74
2023/04/20 13:56:28;;;;;;;9.43;6.15;;;;;14.90;95879.00;;;;8297128;28;20263;-73
2023/04/20 14:00:31;;;;;;;10.48;6.07;;;;;14.70;95877.00;;;;8310962;28;20605;-73
2023/04/20 14:04:37;;;;;;;7.05;5.22;;;;;15.00;95864.00;;;;8309123;28;20232;-73
2023/04/20 14:08:40;;;;;;;7.93;5.22;;;;;15.50;95875.00;;;;8313604;28;20614;-73
2023/04/20 14:12:51;;;;;;;7.32;5.50;;;;;15.70;95876.00;;;;8312688;28;20205;-73
2023/04/20 14:16:55;;;;;;;8.25;6.18;;;;;15.60;95886.00;;;;8314903;28;20256;-74
2023/04/20 14:20:58;;;;;;;8.23;5.47;;;;;15.40;95890.00;;;;8320805;28;20206;-73
2023/04/20 14:25:01;;;;;;;8.70;5.65;;;;;15.20;95883.00;;;;8309569;28;20801;-73
2023/04/20 14:29:06;;;;;;;7.40;5.75;;;;;15.10;95868.00;;;;8316724;28;20202;-73
2023/04/20 14:33:09;;;;;;;8.15;6.00;;;;;15.20;95869.00;;;;8308702;28;20197;-74
2023/04/20 14:37:16;;;;;;;9.52;5.72;;;;;14.90;95875.00;;;;8317519;28;20761;-74
2023/04/20 14:41:19;;;;;;;8.57;6.13;;;;;14.70;95869.00;;;;8318665;28;20200;-73
2023/04/20 14:45:27;;;;;;;9.27;6.43;;;;;14.80;95872.00;;;;8313024;28;20692;-73
2023/04/20 14:49:30;;;;;;;10.02;6.63;;;;;14.70;95863.00;;;;8303866;28;20196;-73
2023/04/20 14:53:36;;;;;;;10.60;6.72;;;;;14.50;95864.00;;;;8314499;28;20248;-73
2023/04/20 14:57:48;;;;;;;13.65;6.97;;;;;14.70;95864.00;;;;8306485;28;21129;-74
2023/04/20 15:01:53;;;;;;;11.05;6.75;;;;;14.40;95862.00;;;;8306504;28;20256;-73
2023/04/20 15:06:05;;;;;;;8.50;6.03;;;;;14.10;95872.00;;;;8314229;28;20240;-73
2023/04/20 15:10:09;;;;;;;9.25;6.90;;;;;13.90;95861.00;;;;8309126;28;20201;-73
2023/04/20 15:14:15;;;;;;;10.65;7.20;;;;;13.90;95862.00;;;;8315334;28;20247;-73
2023/04/20 15:18:23;;;;;;;8.95;7.03;;;;;13.90;95853.00;;;;8312546;28;20250;-73
2023/04/20 15:22:29;;;;;;;13.80;7.20;;;;;13.70;95845.00;;;;8311088;28;20787;-73
2023/04/20 15:26:36;;;;;;;14.52;8.68;;;;;13.60;95843.00;;;;8307092;28;20237;-73
2023/04/20 15:30:43;;;;;;;13.50;7.53;;;;;13.50;95830.00;;;;8309528;28;20198;-73
2023/04/20 15:34:49;;;;;;;9.82;6.65;;;;;13.40;95828.00;;;;8310171;28;20258;-73
2023/04/20 15:38:55;;;;;;;11.65;6.75;;;;;13.30;95833.00;;;;8314613;28;20256;-73
2023/04/20 15:43:01;;;;;;;12.25;8.07;;;;;13.20;95827.00;;;;8306886;28;20205;-73
2023/04/20 15:47:06;;;;;;;13.13;8.07;;;;;13.00;95816.00;;;;8309255;28;21031;-72
2023/04/20 15:51:14;;;;;;;12.70;8.38;;;;;12.90;95822.00;;;;8293211;28;20211;-72
2023/04/20 15:55:19;;;;;;;13.32;7.28;;;;;12.70;95813.00;;;;8310820;28;20196;-73
2023/04/20 15:59:23;;;;;;;15.50;9.57;;;;;12.50;95814.00;;;;8314479;28;20205;-73
2023/04/20 16:03:27;;;;;;;14.63;8.70;;;;;12.40;95815.00;;;;8316970;28;20239;-72
2023/04/20 16:07:36;;;;;;;16.58;9.85;;;;;12.40;95815.00;;;;8309513;28;20229;-72
2023/04/20 16:11:40;;;;;;;12.68;7.63;;;;;12.40;95814.00;;;;8307125;28;20607;-72
2023/04/20 16:15:47;;;;;;;14.43;9.50;;;;;12.30;95817.00;;;;8316792;28;20665;-72
2023/04/20 16:19:51;;;;;;;18.17;11.20;;;;;12.30;95821.00;;;;8310060;28;20223;-73
2023/04/20 16:23:56;;;;;;;21.48;12.65;;;;;12.20;95831.00;;;;8306746;28;20642;-72
2023/04/20 16:28:03;;;;;;;20.73;12.70;;;;;12.10;95825.00;;;;8311625;28;20343;-73
2023/04/20 16:32:06;;;;;;;23.73;12.35;;;;;11.90;95825.00;;;;8306482;28;20218;-72
2023/04/20 16:36:12;;;;;;;20.58;12.52;;;;;11.80;95816.00;;;;8316280;28;20665;-72
2023/04/20 16:40:19;;;;;;;23.05;13.05;;;;;11.70;95820.00;;;;8314905;28;20550;-72
2023/04/20 16:44:23;;;;;;;22.23;13.05;;;;;11.60;95823.00;;;;8312168;28;20260;-72
2023/04/20 16:48:26;;;;;;;19.27;11.35;;;;;11.60;95815.00;;;;8311815;28;20309;-72
2023/04/20 16:52:31;;;;;;;21.77;11.98;;;;;11.50;95815.00;;;;8285950;28;20194;-72
2023/04/20 16:56:36;;;;;;;25.33;12.75;;;;;11.50;95823.00;;;;8290501;28;20756;-72
2023/04/20 17:00:44;;;;;;;20.27;12.57;;;;;11.50;95816.00;;;;8294838;28;20285;-73
2023/04/20 17:04:50;;;;;;;26.48;13.73;;;;;11.40;95824.00;;;;8311714;28;20229;-73
2023/04/20 17:08:56;;;;;;;23.17;13.70;;;;;11.50;95814.00;;;;8324166;28;20274;-73
2023/04/20 17:13:01;;;;;;;21.05;12.48;;;;;11.80;95810.00;;;;8310157;28;20890;-73
2023/04/20 17:17:06;;;;;;;22.13;13.43;;;;;11.90;95815.00;;;;8314174;28;20206;-72
2023/04/20 17:21:10;;;;;;;26.50;16.10;;;;;11.80;95810.00;;;;8311975;28;20204;-72
2023/04/20 17:25:16;;;;;;;26.20;14.52;;;;;11.60;95810.00;;;;8282997;28;20203;-72
2023/04/20 17:29:21;;;;;;;26.73;13.90;;;;;11.40;95805.00;;;;8324565;28;20287;-72
2023/04/20 17:33:25;;;;;;;27.08;15.40;;;;;11.20;95804.00;;;;8321876;28;20198;-72
2023/04/20 17:37:28;;;;;;;22.33;12.63;;;;;11.00;95812.00;;;;8305923;28;20271;-72
2023/04/20 17:41:34;;;;;;;25.08;14.43;;;;;10.90;95811.00;;;;8315184;28;20220;-72
2023/04/20 17:45:44;;;;;;;24.27;13.52;;;;;10.80;95807.00;;;;8318845;28;20234;-73
2023/04/20 17:49:47;;;;;;;27.67;14.35;;;;;10.70;95809.00;;;;8320771;28;20236;-72
2023/04/20 17:53:53;;;;;;;21.77;11.63;;;;;10.70;95809.00;;;;8321026;28;20236;-73
2023/04/20 17:58:00;;;;;;;23.50;13.43;;;;;10.60;95816.00;;;;8322982;28;20215;-70
2023/04/20 18:02:06;;;;;;;25.63;13.38;;;;;10.50;95829.00;;;;8314606;28;20558;-72
2023/04/20 18:06:10;;;;;;;24.73;14.30;;;;;10.50;95820.00;;;;8317842;28;20224;-72
2023/04/20 18:10:14;;;;;;;25.48;13.63;;;;;10.40;95814.00;;;;8305763;28;20202;-72
2023/04/20 18:14:18;;;;;;;22.43;12.50;;;;;10.30;95809.00;;;;8306935;28;20204;-72
2023/04/20 18:18:22;;;;;;;19.98;11.55;;;;;10.30;95818.00;;;;8307823;28;20229;-72
2023/04/20 18:22:30;;;;;;;23.52;13.32;;;;;10.20;95822.00;;;;8315055;28;20227;-72
2023/04/20 18:26:33;;;;;;;19.48;11.05;;;;;10.30;95831.00;;;;8311437;28;21011;-72
2023/04/20 18:30:36;;;;;;;21.33;11.88;;;;;10.30;95817.00;;;;8315407;28;20241;-72
2023/04/20 18:34:43;;;;;;;23.35;13.15;;;;;10.30;95827.00;;;;8289191;28;20205;-74
2023/04/20 18:38:49;;;;;;;22.05;12.93;;;;;10.40;95838.00;;;;8312222;28;20633;-73
2023/04/20 18:42:52;;;;;;;22.67;12.18;;;;;10.40;95846.00;;;;8310995;28;20289;-72
2023/04/20 18:47:00;;;;;;;25.65;14.38;;;;;10.40;95841.00;;;;8314522;28;20275;-72
2023/04/20 18:51:08;;;;;;;25.10;13.43;;;;;10.40;95838.00;;;;8292937;28;20195;-72
2023/04/20 18:55:13;;;;;;;25.40;13.38;;;;;10.50;95830.00;;;;8308643;28;20195;-73
2023/04/20 18:59:19;;;;;;;23.25;11.68;;;;;10.60;95832.00;;;;8304421;28;20210;-72
2023/04/20 19:03:22;;;;;;;24.08;11.60;;;;;10.60;95836.00;;;;8310299;28;20689;-73
2023/04/20 19:07:28;;;;;;;23.90;13.07;;;;;10.60;95847.00;;;;8308359;28;20218;-73
2023/04/20 19:11:32;;;;;;;25.15;13.15;;;;;10.60;95858.00;;;;8306062;28;20198;-73
2023/04/20 19:15:35;;;;;;;24.45;12.98;;;;;10.70;95859.00;;;;8304812;28;20210;-73
2023/04/20 19:19:38;;;;;;;24.52;14.13;;;;;10.70;95865.00;;;;8303319;28;20498;-73
2023/04/20 19:23:42;;;;;;;25.98;14.43;;;;;10.70;95869.00;;;;8289761;28;20228;-72
2023/04/20 19:27:47;;;;;;;24.25;13.07;;;;;10.60;95865.00;;;;8308720;28;20220;-74
2023/04/20 19:31:52;;;;;;;27.67;13.88;;;;;10.60;95877.00;;;;8312711;28;20219;-73
2023/04/20 19:35:55;;;;;;;24.20;12.68;;;;;10.60;95883.00;;;;8312545;28;20290;-72
2023/04/20 19:40:00;;;;;;;26.58;13.10;;;;;10.60;95874.00;;;;8311271;28;20202;-73
2023/04/20 19:44:09;;;;;;;27.42;14.73;;;;;10.60;95877.00;;;;8311275;28;20210;-72
2023/04/20 19:48:12;;;;;;;22.10;12.80;;;;;10.60;95876.00;;;;8310773;28;20264;-73
2023/04/20 19:52:18;;;;;;;25.88;13.63;;;;;10.60;95886.00;;;;8312459;28;20201;-73
2023/04/20 19:56:23;;;;;;;31.38;14.40;;;;;10.50;95891.00;;;;8307202;28;20206;-73
2023/04/20 20:00:27;;;;;;;25.80;13.75;;;;;10.50;95891.00;;;;8312000;28;20639;-73
2023/04/20 20:04:36;;;;;;;29.20;13.75;;;;;10.50;95897.00;;;;8303410;28;20227;-73
2023/04/20 20:08:43;;;;;;;25.30;13.48;;;;;10.50;95899.00;;;;8302242;28;20256;-73
2023/04/20 20:12:49;;;;;;;25.95;14.45;;;;;10.50;95896.00;;;;8297485;28;20279;-73
2023/04/20 20:16:57;;;;;;;32.55;16.00;;;;;10.50;95890.00;;;;8310028;28;20205;-73